createdAt,value
2023-09-02T00:00:45.219Z,2.67
2023-09-02T00:02:17.372Z,2.92
2023-09-02T00:03:50.363Z,2.70
2023-09-02T00:05:23.842Z,2.88
2023-09-02T00:06:57.080Z,2.47
2023-09-02T00:10:02.020Z,2.30
2023-09-02T00:13:09.647Z,2.15
2023-09-02T00:14:45.238Z,2.20
2023-09-02T00:16:20.108Z,2.55
2023-09-02T00:17:53.171Z,2.40
2023-09-02T00:19:26.193Z,2.55
2023-09-02T00:21:01.002Z,2.30
2023-09-02T00:22:36.450Z,2.42
2023-09-02T00:24:10.096Z,2.80
2023-09-02T00:25:43.791Z,2.80
2023-09-02T00:27:16.824Z,2.60
2023-09-02T00:28:49.837Z,2.53
2023-09-02T00:30:22.060Z,2.40
2023-09-02T00:31:55.112Z,2.42
2023-09-02T00:33:27.259Z,2.40
2023-09-02T00:35:00.293Z,2.35
2023-09-02T00:36:33.778Z,2.67
2023-09-02T00:38:07.975Z,2.40
2023-09-02T00:39:40.041Z,2.65
2023-09-02T00:41:20.966Z,2.60
2023-09-02T00:42:57.182Z,2.28
2023-09-02T00:44:30.247Z,2.60
2023-09-02T00:46:02.773Z,2.50
2023-09-02T00:47:35.809Z,2.55
2023-09-02T00:49:08.120Z,2.78
2023-09-02T00:50:41.209Z,2.30
2023-09-02T00:52:14.616Z,2.70
2023-09-02T00:53:47.730Z,2.65
2023-09-02T00:55:21.440Z,2.35
2023-09-02T00:56:53.628Z,2.40
2023-09-02T00:58:26.714Z,2.72
2023-09-02T01:00:01.318Z,2.50
2023-09-02T01:01:36.845Z,2.30
2023-09-02T01:03:11.262Z,2.50
2023-09-02T01:04:45.776Z,2.70
2023-09-02T01:06:23.158Z,2.63
2023-09-02T01:08:04.656Z,2.45
2023-09-02T01:09:37.791Z,2.45
2023-09-02T01:11:09.867Z,2.58
2023-09-02T01:12:43.398Z,2.20
2023-09-02T01:14:18.038Z,2.47
2023-09-02T01:15:51.204Z,2.42
2023-09-02T01:17:23.451Z,2.22
2023-09-02T01:18:56.634Z,3.15
2023-09-02T01:22:22.367Z,2.38
2023-09-02T01:24:10.666Z,2.33
2023-09-02T01:26:04.058Z,2.30
2023-09-02T01:27:41.120Z,2.80
2023-09-02T01:29:20.037Z,2.47
2023-09-02T01:30:55.290Z,2.28
2023-09-02T01:32:34.165Z,2.83
2023-09-02T01:34:08.514Z,2.47
2023-09-02T01:35:42.105Z,2.60
2023-09-02T01:37:18.474Z,2.30
2023-09-02T01:38:53.980Z,2.55
2023-09-02T01:40:29.057Z,2.40
2023-09-02T01:42:01.215Z,2.60
2023-09-02T01:43:37.173Z,2.60
2023-09-02T01:45:11.979Z,2.42
2023-09-02T01:46:45.467Z,2.33
2023-09-02T01:48:18.380Z,3.10
2023-09-02T01:49:51.776Z,2.90
2023-09-02T01:51:24.744Z,2.83
2023-09-02T01:52:58.660Z,2.70
2023-09-02T01:54:30.887Z,2.60
2023-09-02T01:56:04.980Z,2.88
2023-09-02T01:57:37.303Z,3.38
2023-09-02T01:59:11.589Z,3.22
2023-09-02T02:00:43.806Z,3.15
2023-09-02T02:02:17.896Z,2.97
2023-09-02T02:03:56.434Z,2.92
2023-09-02T02:05:35.410Z,2.90
2023-09-02T02:07:14.920Z,3.22
2023-09-02T02:08:56.753Z,3.78
2023-09-02T02:10:31.640Z,3.50
2023-09-02T02:12:04.795Z,3.28
2023-09-02T02:13:39.338Z,3.40
2023-09-02T02:15:13.229Z,2.50
2023-09-02T02:16:46.173Z,2.80
2023-09-02T02:18:19.064Z,2.63
2023-09-02T02:19:52.440Z,2.80
2023-09-02T02:21:24.687Z,2.80
2023-09-02T02:22:57.597Z,2.47
2023-09-02T02:24:29.520Z,2.65
2023-09-02T02:26:03.429Z,2.70
2023-09-02T02:27:36.415Z,2.78
2023-09-02T02:29:08.499Z,2.58
2023-09-02T02:30:42.827Z,2.75
2023-09-02T02:32:14.922Z,2.55
2023-09-02T02:33:47.888Z,2.60
2023-09-02T02:35:22.773Z,2.47
2023-09-02T02:36:55.774Z,2.53
2023-09-02T02:38:27.772Z,3.00
2023-09-02T02:40:00.706Z,2.83
2023-09-02T02:41:32.760Z,2.92
2023-09-02T02:43:05.954Z,2.70
2023-09-02T02:46:12.207Z,2.60
2023-09-02T02:47:44.327Z,2.60
2023-09-02T02:49:17.283Z,2.60
2023-09-02T02:50:49.370Z,2.90
2023-09-02T02:52:22.723Z,3.28
2023-09-02T02:53:54.788Z,2.80
2023-09-02T02:55:28.147Z,2.60
2023-09-02T02:57:00.098Z,3.03
2023-09-02T02:58:34.210Z,2.90
2023-09-02T03:00:09.558Z,3.10
2023-09-02T03:01:43.970Z,3.33
2023-09-02T03:03:16.568Z,3.10
2023-09-02T03:04:50.201Z,2.90
2023-09-02T03:06:23.555Z,3.30
2023-09-02T03:07:56.596Z,2.78
2023-09-02T03:11:03.767Z,2.97
2023-09-02T03:12:35.733Z,2.95
2023-09-02T03:14:08.735Z,3.08
2023-09-02T03:15:50.145Z,3.00
2023-09-02T03:17:24.520Z,3.03
2023-09-02T03:18:56.578Z,3.33
2023-09-02T03:20:29.535Z,3.20
2023-09-02T03:22:02.462Z,2.92
2023-09-02T03:23:35.202Z,3.10
2023-09-02T03:25:09.099Z,3.03
2023-09-02T03:26:41.010Z,3.17
2023-09-02T03:28:15.163Z,3.40
2023-09-02T03:29:50.149Z,3.05
2023-09-02T03:31:22.184Z,2.90
2023-09-02T03:32:56.873Z,3.20
2023-09-02T03:34:28.841Z,3.10
2023-09-02T03:36:01.926Z,3.30
2023-09-02T03:37:33.845Z,3.20
2023-09-02T03:39:07.130Z,3.60
2023-09-02T03:42:12.058Z,2.50
2023-09-02T03:43:44.189Z,3.17
2023-09-02T03:45:17.309Z,2.90
2023-09-02T03:46:51.416Z,3.00
2023-09-02T03:48:25.853Z,2.95
2023-09-02T03:49:57.970Z,3.17
2023-09-02T03:51:31.057Z,3.00
2023-09-02T03:53:03.098Z,3.00
2023-09-02T03:54:36.538Z,3.03
2023-09-02T03:56:08.701Z,3.42
2023-09-02T03:57:41.660Z,2.72
2023-09-02T03:59:13.626Z,2.97
2023-09-02T04:00:46.933Z,3.00
2023-09-02T04:02:19.990Z,2.90
2023-09-02T04:03:54.556Z,3.45
2023-09-02T04:05:26.629Z,3.35
2023-09-02T04:06:59.625Z,2.88
2023-09-02T04:08:35.258Z,2.80
2023-09-02T04:10:09.365Z,2.85
2023-09-02T04:11:41.346Z,3.08
2023-09-02T04:13:14.290Z,2.80
2023-09-02T04:14:47.162Z,2.70
2023-09-02T04:16:19.189Z,3.08
2023-09-02T04:17:52.264Z,2.80
2023-09-02T04:19:25.630Z,2.63
2023-09-02T04:21:00.499Z,2.88
2023-09-02T04:22:32.464Z,2.65
2023-09-02T04:24:05.859Z,3.28
2023-09-02T04:25:45.715Z,3.45
2023-09-02T04:27:18.620Z,2.80
2023-09-02T04:28:51.075Z,2.92
2023-09-02T04:30:25.718Z,3.00
2023-09-02T04:31:59.173Z,3.15
2023-09-02T04:33:32.413Z,3.50
2023-09-02T04:35:06.978Z,3.33
2023-09-02T04:36:39.930Z,3.70
2023-09-02T04:38:12.213Z,3.03
2023-09-02T04:39:45.174Z,3.20
2023-09-02T04:41:17.516Z,3.80
2023-09-02T04:42:50.782Z,3.95
2023-09-02T04:45:55.756Z,3.53
2023-09-02T04:47:27.859Z,4.00
2023-09-02T04:49:00.805Z,4.50
2023-09-02T04:50:35.919Z,3.97
2023-09-02T04:52:08.917Z,3.70
2023-09-02T04:53:40.949Z,3.53
2023-09-02T04:55:14.074Z,3.40
2023-09-02T04:56:47.024Z,3.22
2023-09-02T04:58:21.549Z,3.25
2023-09-02T04:59:54.636Z,3.45
2023-09-02T05:01:27.842Z,3.40
2023-09-02T05:04:34.658Z,2.97
2023-09-02T05:06:11.423Z,2.55
2023-09-02T05:07:44.851Z,2.47
2023-09-02T05:10:49.648Z,2.97
2023-09-02T05:12:22.567Z,3.17
2023-09-02T05:13:54.501Z,3.00
2023-09-02T05:15:27.417Z,3.22
2023-09-02T05:17:01.004Z,2.92
2023-09-02T05:18:32.930Z,2.90
2023-09-02T05:20:07.123Z,3.13
2023-09-02T05:21:41.519Z,3.40
2023-09-02T05:23:13.725Z,3.13
2023-09-02T05:24:46.646Z,3.03
2023-09-02T05:26:18.595Z,2.97
2023-09-02T05:27:51.499Z,3.00
2023-09-02T05:29:23.508Z,3.00
2023-09-02T05:30:56.489Z,2.63
2023-09-02T05:32:28.519Z,2.63
2023-09-02T05:34:01.504Z,3.30
2023-09-02T05:35:33.454Z,3.03
2023-09-02T05:37:07.990Z,2.67
2023-09-02T05:38:39.985Z,2.70
2023-09-02T05:40:13.472Z,2.80
2023-09-02T05:41:46.602Z,2.80
2023-09-02T05:43:18.911Z,2.83
2023-09-02T05:44:51.984Z,4.32
2023-09-02T05:46:24.039Z,2.97
2023-09-02T05:47:57.072Z,2.65
2023-09-02T05:49:30.000Z,2.90
2023-09-02T05:51:02.954Z,2.95
2023-09-02T05:52:37.288Z,2.90
2023-09-02T05:54:10.507Z,3.15
2023-09-02T05:57:15.275Z,3.10
2023-09-02T05:58:48.220Z,3.28
2023-09-02T06:00:20.370Z,2.80
2023-09-02T06:01:53.351Z,2.97
2023-09-02T06:03:25.458Z,2.70
2023-09-02T06:04:58.446Z,2.80
2023-09-02T06:06:32.471Z,2.90
2023-09-02T06:08:08.459Z,3.30
2023-09-02T06:09:40.580Z,2.92
2023-09-02T06:11:13.745Z,2.95
2023-09-02T06:14:18.440Z,2.70
2023-09-02T06:15:51.463Z,3.08
2023-09-02T06:17:23.689Z,3.10
2023-09-02T06:18:56.770Z,2.90
2023-09-02T06:20:28.903Z,3.42
2023-09-02T06:22:01.940Z,3.42
2023-09-02T06:23:35.278Z,3.40
2023-09-02T06:25:08.605Z,4.10
2023-09-02T06:26:40.650Z,3.50
2023-09-02T06:28:13.609Z,3.70
2023-09-02T06:29:45.613Z,3.50
2023-09-02T06:31:18.678Z,3.50
2023-09-02T06:32:50.764Z,3.22
2023-09-02T06:34:24.290Z,3.05
2023-09-02T06:35:56.287Z,2.88
2023-09-02T06:37:30.341Z,2.88
2023-09-02T06:39:05.751Z,3.25
2023-09-02T06:40:37.839Z,3.30
2023-09-02T06:42:10.839Z,2.90
2023-09-02T06:43:44.783Z,3.50
2023-09-02T06:45:16.850Z,3.35
2023-09-02T06:46:51.738Z,3.40
2023-09-02T06:48:26.243Z,3.38
2023-09-02T06:50:00.002Z,3.58
2023-09-02T06:51:33.016Z,3.17
2023-09-02T06:53:05.045Z,2.70
2023-09-02T06:54:39.434Z,3.40
2023-09-02T06:56:13.478Z,3.40
2023-09-02T06:57:46.816Z,2.80
2023-09-02T07:00:51.617Z,2.65
2023-09-02T07:02:24.692Z,2.35
2023-09-02T07:03:57.914Z,2.42
2023-09-02T07:05:31.003Z,2.50
2023-09-02T07:07:04.030Z,2.33
2023-09-02T07:10:12.009Z,2.63
2023-09-02T07:11:45.033Z,2.55
2023-09-02T07:13:17.221Z,2.50
2023-09-02T07:14:50.378Z,2.30
2023-09-02T07:16:22.361Z,2.55
2023-09-02T07:17:55.457Z,2.60
2023-09-02T07:21:01.254Z,2.33
2023-09-02T07:22:36.311Z,2.35
2023-09-02T07:24:08.317Z,2.58
2023-09-02T07:25:42.738Z,2.30
2023-09-02T07:27:14.800Z,2.25
2023-09-02T07:28:47.852Z,2.70
2023-09-02T07:30:20.034Z,2.40
2023-09-02T07:31:53.138Z,2.58
2023-09-02T07:34:58.012Z,2.10
2023-09-02T07:38:03.242Z,2.20
2023-09-02T07:39:35.583Z,2.45
2023-09-02T07:41:10.917Z,2.80
2023-09-02T07:42:44.021Z,2.80
2023-09-02T07:44:17.030Z,2.60
2023-09-02T07:45:49.722Z,2.78
2023-09-02T07:47:23.028Z,2.75
2023-09-02T07:48:55.093Z,2.47
2023-09-02T07:50:28.104Z,2.65
2023-09-02T07:52:00.134Z,2.55
2023-09-02T07:53:33.142Z,2.60
2023-09-02T07:55:06.016Z,2.80
2023-09-02T07:56:40.303Z,2.83
2023-09-02T07:58:12.289Z,2.58
2023-09-02T07:59:45.352Z,2.25
2023-09-02T08:02:50.243Z,2.50
2023-09-02T08:04:22.292Z,3.00
2023-09-02T08:05:55.237Z,2.42
2023-09-02T08:07:27.254Z,2.15
2023-09-02T08:09:00.315Z,2.53
2023-09-02T08:12:06.881Z,2.80
2023-09-02T08:13:38.828Z,2.80
2023-09-02T08:15:12.469Z,2.80
2023-09-02T08:16:45.437Z,5.93
2023-09-02T08:18:17.529Z,5.38
2023-09-02T08:19:50.506Z,3.40
2023-09-02T08:21:22.525Z,2.88
2023-09-02T08:22:55.596Z,2.70
2023-09-02T08:26:06.706Z,2.13
2023-09-02T08:27:43.706Z,2.30
2023-09-02T08:29:17.015Z,2.20
2023-09-02T08:30:49.070Z,2.30
2023-09-02T08:32:22.170Z,2.00
2023-09-02T08:35:27.043Z,2.10
2023-09-02T08:36:59.154Z,2.47
2023-09-02T08:38:33.861Z,2.37
2023-09-02T08:40:07.063Z,2.28
2023-09-02T08:41:42.992Z,2.70
2023-09-02T08:43:16.833Z,2.35
2023-09-02T08:44:50.315Z,2.38
2023-09-02T08:46:26.209Z,2.08
2023-09-02T08:48:02.960Z,2.08
2023-09-02T08:49:35.562Z,2.00
2023-09-02T08:51:09.734Z,2.10
2023-09-02T08:52:41.822Z,1.73
2023-09-02T08:54:16.264Z,2.15
2023-09-02T08:55:49.826Z,2.13
2023-09-02T08:57:23.118Z,2.17
2023-09-02T08:58:57.221Z,2.67
2023-09-02T09:00:32.119Z,2.50
2023-09-02T09:02:05.020Z,2.42
2023-09-02T09:03:41.727Z,2.40
2023-09-02T09:05:14.126Z,3.03
2023-09-02T09:06:47.627Z,2.60
2023-09-02T09:08:21.391Z,2.30
2023-09-02T09:09:56.713Z,2.28
2023-09-02T09:11:30.849Z,2.50
2023-09-02T09:13:07.971Z,1.80
2023-09-02T09:14:48.379Z,2.25
2023-09-02T09:16:25.805Z,2.50
2023-09-02T09:17:59.024Z,1.83
2023-09-02T09:19:31.338Z,2.10
2023-09-02T09:21:04.335Z,2.35
2023-09-02T09:22:40.512Z,2.20
2023-09-02T09:24:13.320Z,2.13
2023-09-02T09:25:50.447Z,2.03
2023-09-02T09:27:22.907Z,1.90
2023-09-02T09:28:57.780Z,1.75
2023-09-02T09:30:31.707Z,1.83
2023-09-02T09:32:11.899Z,1.90
2023-09-02T09:33:50.487Z,2.00
2023-09-02T09:35:24.082Z,2.63
2023-09-02T09:36:58.251Z,2.08
2023-09-02T09:38:39.428Z,1.85
2023-09-02T09:40:13.850Z,2.35
2023-09-02T09:41:47.839Z,2.10
2023-09-02T09:43:25.903Z,2.00
2023-09-02T09:45:01.642Z,2.50
2023-09-02T09:46:36.390Z,1.92
2023-09-02T09:48:11.494Z,1.90
2023-09-02T09:49:43.432Z,1.80
2023-09-02T09:51:24.331Z,2.08
2023-09-02T09:53:02.604Z,2.10
2023-09-02T09:54:38.199Z,2.28
2023-09-02T09:56:10.207Z,2.20
2023-09-02T09:57:43.281Z,2.20
2023-09-02T10:00:52.427Z,2.00
2023-09-02T10:02:26.897Z,2.00
2023-09-02T10:03:58.974Z,2.10
2023-09-02T10:05:33.040Z,2.30
2023-09-02T10:07:05.562Z,1.80
2023-09-02T10:08:55.294Z,2.10
2023-09-02T10:10:33.537Z,2.40
2023-09-02T10:12:12.244Z,1.90
2023-09-02T10:13:45.244Z,2.00
2023-09-02T10:15:17.595Z,2.28
2023-09-02T10:16:51.020Z,1.90
2023-09-02T10:18:25.120Z,1.92
2023-09-02T10:19:58.142Z,2.00
2023-09-02T10:21:30.755Z,1.65
2023-09-02T10:23:07.064Z,1.80
2023-09-02T10:24:45.490Z,1.92
2023-09-02T10:26:23.573Z,1.70
2023-09-02T10:28:04.525Z,1.90
2023-09-02T10:29:43.649Z,1.80
2023-09-02T10:31:22.815Z,2.00
2023-09-02T10:33:00.534Z,1.85
2023-09-02T10:34:49.869Z,2.03
2023-09-02T10:36:25.339Z,1.90
2023-09-02T10:37:59.499Z,2.08
2023-09-02T10:39:40.387Z,1.98
2023-09-02T10:41:13.938Z,2.03
2023-09-02T10:42:47.736Z,2.13
2023-09-02T10:44:20.873Z,2.17
2023-09-02T10:47:25.927Z,1.45
2023-09-02T10:49:00.704Z,2.00
2023-09-02T10:50:35.223Z,1.73
2023-09-02T10:52:10.341Z,1.95
2023-09-02T10:53:57.643Z,1.70
2023-09-02T10:55:32.384Z,2.25
2023-09-02T10:57:13.932Z,1.80
2023-09-02T10:58:49.940Z,1.80
2023-09-02T11:00:25.289Z,1.77
2023-09-02T11:01:58.356Z,1.73
2023-09-02T11:05:17.517Z,2.00
2023-09-02T11:07:30.296Z,1.73
2023-09-02T11:09:03.313Z,1.60
2023-09-02T11:10:53.637Z,1.65
2023-09-02T11:12:27.518Z,2.03
2023-09-02T11:14:21.799Z,1.80
2023-09-02T11:16:13.354Z,1.70
2023-09-02T11:17:45.935Z,1.65
2023-09-02T11:19:19.014Z,1.73
2023-09-02T11:20:51.398Z,1.80
2023-09-02T11:22:52.125Z,1.90
2023-09-02T11:24:24.139Z,1.45
2023-09-02T11:26:05.820Z,1.50
2023-09-02T11:27:45.462Z,1.65
2023-09-02T11:29:25.737Z,1.52
2023-09-02T11:31:06.179Z,1.30
2023-09-02T11:32:44.707Z,1.55
2023-09-02T11:34:18.553Z,1.60
2023-09-02T11:35:51.681Z,1.40
2023-09-02T11:39:09.830Z,1.30
2023-09-02T11:40:41.822Z,1.40
2023-09-02T11:42:15.101Z,1.30
2023-09-02T11:43:48.065Z,1.50
2023-09-02T11:45:20.970Z,1.70
2023-09-02T11:46:54.026Z,1.50
2023-09-02T11:49:59.099Z,1.40
2023-09-02T11:53:06.220Z,1.30
2023-09-02T11:54:41.954Z,1.60
2023-09-02T11:56:14.018Z,1.50
2023-09-02T11:57:48.528Z,1.98
2023-09-02T11:59:21.108Z,1.52
2023-09-02T12:00:54.276Z,1.42
2023-09-02T12:02:26.764Z,1.50
2023-09-02T12:03:59.785Z,1.50
2023-09-02T12:07:11.766Z,1.63
2023-09-02T12:08:43.981Z,1.50
2023-09-02T12:10:19.399Z,1.70
2023-09-02T12:11:54.806Z,1.73
2023-09-02T12:13:30.510Z,1.50
2023-09-02T12:15:04.344Z,1.80
2023-09-02T12:16:40.037Z,1.52
2023-09-02T12:18:12.161Z,1.40
2023-09-02T12:19:45.306Z,1.50
2023-09-02T12:22:50.548Z,1.58
2023-09-02T12:24:23.780Z,1.50
2023-09-02T12:26:05.945Z,1.65
2023-09-02T12:27:41.729Z,1.48
2023-09-02T12:29:19.379Z,1.40
2023-09-02T12:30:53.312Z,1.50
2023-09-02T12:32:25.628Z,1.50
2023-09-02T12:33:58.644Z,1.40
2023-09-02T12:37:15.437Z,1.40
2023-09-02T12:38:52.926Z,1.60
2023-09-02T12:40:25.059Z,1.50
2023-09-02T12:42:01.871Z,1.50
2023-09-02T12:43:33.958Z,1.80
2023-09-02T12:45:09.398Z,1.50
2023-09-02T12:46:41.599Z,1.50
2023-09-02T12:48:15.922Z,1.50
2023-09-02T12:49:48.430Z,1.50
2023-09-02T12:51:29.122Z,1.40
2023-09-02T12:53:05.646Z,1.50
2023-09-02T12:54:38.646Z,1.50
2023-09-02T12:56:10.868Z,1.40
2023-09-02T12:57:45.356Z,1.40
2023-09-02T12:59:17.359Z,1.75
2023-09-02T13:00:50.452Z,1.42
2023-09-02T13:03:56.980Z,1.50
2023-09-02T13:05:31.018Z,1.20
2023-09-02T13:07:03.650Z,1.27
2023-09-02T13:08:36.662Z,1.30
2023-09-02T13:10:10.128Z,1.27
2023-09-02T13:11:43.190Z,1.30
2023-09-02T13:14:50.967Z,1.20
2023-09-02T13:16:23.584Z,1.33
2023-09-02T13:17:56.698Z,1.50
2023-09-02T13:19:30.551Z,1.60
2023-09-02T13:21:03.701Z,1.63
2023-09-02T13:22:38.034Z,1.48
2023-09-02T13:24:16.855Z,1.50
2023-09-02T13:25:50.590Z,1.50
2023-09-02T13:27:25.858Z,1.50
2023-09-02T13:29:02.616Z,1.30
2023-09-02T13:30:35.774Z,1.38
2023-09-02T13:32:09.111Z,1.40
2023-09-02T13:33:43.773Z,1.40
2023-09-02T13:35:17.564Z,1.50
2023-09-02T13:36:50.576Z,1.20
2023-09-02T13:38:26.215Z,1.27
2023-09-02T13:40:02.335Z,1.30
2023-09-02T13:41:34.508Z,1.40
2023-09-02T13:43:10.310Z,1.27
2023-09-02T13:44:44.058Z,1.40
2023-09-02T13:46:17.364Z,1.52
2023-09-02T13:47:50.614Z,1.40
2023-09-02T13:49:23.622Z,1.40
2023-09-02T13:51:00.507Z,1.30
2023-09-02T13:52:33.608Z,1.23
2023-09-02T13:55:42.896Z,1.40
2023-09-02T13:57:15.674Z,1.30
2023-09-02T13:58:51.867Z,1.40
2023-09-02T14:00:28.454Z,1.40
2023-09-02T14:02:03.826Z,1.60
2023-09-02T14:03:36.959Z,1.95
2023-09-02T14:05:15.453Z,1.50
2023-09-02T14:06:47.779Z,1.48
2023-09-02T14:08:21.899Z,1.40
2023-09-02T14:09:53.935Z,1.42
2023-09-02T14:11:27.053Z,1.30
2023-09-02T14:14:38.616Z,1.30
2023-09-02T14:16:13.032Z,1.60
2023-09-02T14:17:46.154Z,2.13
2023-09-02T14:20:51.566Z,1.60
2023-09-02T14:22:23.711Z,1.60
2023-09-02T14:23:56.718Z,1.40
2023-09-02T14:27:14.990Z,1.48
2023-09-02T14:28:48.129Z,1.38
2023-09-02T14:31:54.466Z,1.40
2023-09-02T14:33:26.617Z,1.38
2023-09-02T14:34:59.614Z,1.40
2023-09-02T14:36:31.678Z,1.35
2023-09-02T14:38:05.065Z,1.43
2023-09-02T14:39:37.263Z,1.55
2023-09-02T14:41:10.422Z,1.60
2023-09-02T14:42:45.552Z,1.40
2023-09-02T14:44:18.801Z,1.58
2023-09-02T14:45:50.926Z,1.65
2023-09-02T14:47:25.597Z,1.70
2023-09-02T14:48:58.672Z,1.60
2023-09-02T14:52:04.111Z,1.40
2023-09-02T14:53:37.150Z,1.50
2023-09-02T14:56:45.029Z,1.60
2023-09-02T14:58:17.460Z,1.50
2023-09-02T14:59:51.246Z,1.35
2023-09-02T15:01:23.327Z,1.48
2023-09-02T15:02:57.835Z,1.50
2023-09-02T15:04:30.616Z,1.52
2023-09-02T15:06:03.531Z,1.52
2023-09-02T15:07:35.751Z,1.40
2023-09-02T15:09:09.986Z,1.50
2023-09-02T15:10:42.001Z,1.63
2023-09-02T15:12:16.736Z,1.60
2023-09-02T15:13:48.694Z,1.75
2023-09-02T15:15:25.267Z,1.35
2023-09-02T15:17:00.895Z,1.27
2023-09-02T15:18:35.578Z,1.40
2023-09-02T15:20:09.415Z,1.40
2023-09-02T15:21:42.603Z,1.30
2023-09-02T15:23:14.576Z,1.50
2023-09-02T15:24:47.972Z,1.60
2023-09-02T15:26:21.006Z,1.50
2023-09-02T15:29:26.569Z,1.50
2023-09-02T15:31:02.993Z,1.27
2023-09-02T15:32:35.968Z,1.45
2023-09-02T15:35:42.669Z,1.50
2023-09-02T15:37:19.364Z,1.60
2023-09-02T15:38:52.519Z,1.48
2023-09-02T15:40:27.175Z,1.70
2023-09-02T15:42:02.940Z,1.55
2023-09-02T15:43:37.861Z,1.50
2023-09-02T15:45:11.919Z,1.80
2023-09-02T15:46:43.936Z,1.50
2023-09-02T15:48:16.869Z,1.30
2023-09-02T15:49:51.136Z,1.40
2023-09-02T15:51:23.191Z,1.50
2023-09-02T15:52:56.134Z,1.65
2023-09-02T15:54:28.341Z,1.40
2023-09-02T15:56:01.677Z,1.30
2023-09-02T15:57:33.740Z,1.30
2023-09-02T15:59:07.015Z,1.20
2023-09-02T16:00:39.003Z,1.50
2023-09-02T16:02:12.070Z,1.55
2023-09-02T16:05:18.476Z,1.65
2023-09-02T16:06:50.490Z,1.70
2023-09-02T16:08:23.495Z,1.50
2023-09-02T16:11:28.244Z,1.40
2023-09-02T16:13:00.292Z,1.40
2023-09-02T16:14:33.314Z,1.67
2023-09-02T16:17:39.324Z,1.20
2023-09-02T16:19:12.751Z,1.23
2023-09-02T16:20:47.054Z,1.30
2023-09-02T16:22:19.761Z,1.08
2023-09-02T16:23:54.622Z,1.10
2023-09-02T16:25:26.665Z,1.10
2023-09-02T16:26:59.687Z,1.30
2023-09-02T16:30:06.621Z,1.33
2023-09-02T16:31:38.717Z,1.13
2023-09-02T16:33:11.769Z,2.00
2023-09-02T16:36:18.837Z,1.38
2023-09-02T16:37:51.294Z,1.38
2023-09-02T16:39:24.253Z,1.27
2023-09-02T16:40:57.475Z,1.30
2023-09-02T16:42:33.863Z,1.40
2023-09-02T16:44:09.231Z,1.42
2023-09-02T16:45:42.835Z,1.50
2023-09-02T16:47:16.755Z,1.38
2023-09-02T16:48:49.724Z,1.42
2023-09-02T16:50:22.096Z,1.52
2023-09-02T16:52:02.734Z,1.40
2023-09-02T16:53:38.865Z,1.50
2023-09-02T16:55:11.587Z,1.42
2023-09-02T16:56:44.722Z,1.35
2023-09-02T16:59:50.086Z,1.38
2023-09-02T17:01:25.123Z,1.10
2023-09-02T17:02:57.256Z,1.20
2023-09-02T17:04:30.741Z,1.23
2023-09-02T17:06:07.108Z,1.30
2023-09-02T17:07:42.780Z,1.23
2023-09-02T17:09:19.401Z,1.05
2023-09-02T17:10:52.697Z,1.23
2023-09-02T17:12:24.779Z,1.13
2023-09-02T17:13:58.894Z,1.48
2023-09-02T17:15:33.249Z,1.20
2023-09-02T17:17:09.123Z,1.30
2023-09-02T17:18:41.743Z,1.33
2023-09-02T17:20:26.141Z,1.40
2023-09-02T17:22:01.284Z,1.80
2023-09-02T17:23:34.602Z,1.50
2023-09-02T17:25:08.184Z,1.83
2023-09-02T17:26:40.201Z,1.52
2023-09-02T17:28:18.427Z,1.40
2023-09-02T17:29:50.712Z,1.60
2023-09-02T17:31:23.799Z,1.50
2023-09-02T17:32:56.077Z,1.60
2023-09-02T17:34:29.196Z,1.60
2023-09-02T17:37:35.202Z,1.80
2023-09-02T17:39:08.648Z,1.80
2023-09-02T17:40:41.740Z,1.63
2023-09-02T17:43:49.615Z,2.20
2023-09-02T17:46:54.465Z,1.95
2023-09-02T17:48:27.415Z,1.80
2023-09-02T17:49:59.682Z,1.70
2023-09-02T17:51:32.596Z,1.58
2023-09-02T17:53:04.854Z,1.40
2023-09-02T17:54:39.168Z,1.60
2023-09-02T17:56:11.164Z,1.83
2023-09-02T17:57:44.158Z,1.45
2023-09-02T17:59:17.252Z,2.20
2023-09-02T18:02:22.322Z,2.50
2023-09-02T18:03:55.672Z,2.70
2023-09-02T18:05:28.755Z,2.58
2023-09-02T18:08:50.698Z,2.35
2023-09-02T18:10:28.104Z,2.38
2023-09-02T18:12:00.065Z,2.50
2023-09-02T18:13:33.059Z,2.55
2023-09-02T18:15:06.324Z,2.97
2023-09-02T18:16:39.386Z,2.60
2023-09-02T18:19:45.407Z,2.90
2023-09-02T18:22:51.369Z,2.78
2023-09-02T18:24:24.558Z,3.10
2023-09-02T18:25:58.865Z,3.08
2023-09-02T18:27:30.891Z,3.20
2023-09-02T18:29:05.651Z,2.85
2023-09-02T18:30:37.728Z,2.90
2023-09-02T18:32:10.916Z,3.55
2023-09-02T18:35:15.789Z,3.00
2023-09-02T18:38:21.013Z,3.10
2023-09-02T18:39:54.278Z,3.42
2023-09-02T18:43:00.362Z,2.90
2023-09-02T18:44:32.287Z,3.58
2023-09-02T18:46:05.406Z,3.67
2023-09-02T18:49:10.814Z,3.00
2023-09-02T18:50:43.392Z,3.20
2023-09-02T18:52:16.569Z,3.38
2023-09-02T18:55:21.410Z,2.83
2023-09-02T18:56:54.785Z,3.08
2023-09-02T18:58:27.734Z,3.30
2023-09-02T18:59:59.846Z,3.47
2023-09-02T19:01:33.395Z,3.45
2023-09-02T19:03:05.786Z,3.45
2023-09-02T19:04:38.843Z,3.58
2023-09-02T19:07:43.820Z,3.05
2023-09-02T19:09:16.536Z,4.32
2023-09-02T19:10:49.728Z,3.30
2023-09-02T19:13:57.321Z,3.45
2023-09-02T19:15:30.359Z,3.33
2023-09-02T19:17:03.414Z,3.60
2023-09-02T19:20:09.088Z,3.05
2023-09-02T19:21:41.548Z,3.17
2023-09-02T19:23:14.636Z,3.70
2023-09-02T19:26:19.707Z,4.68
2023-09-02T19:27:54.080Z,4.07
2023-09-02T19:29:26.042Z,4.38
2023-09-02T19:31:02.040Z,4.45
2023-09-02T19:32:34.252Z,4.22
2023-09-02T19:34:07.244Z,4.22
2023-09-02T19:35:40.170Z,4.18
2023-09-02T19:37:13.149Z,4.30
2023-09-02T19:38:45.186Z,4.60
2023-09-02T19:40:20.037Z,4.93
2023-09-02T19:41:53.147Z,4.93
2023-09-02T19:44:59.412Z,4.90
2023-09-02T19:46:31.431Z,5.43
2023-09-02T19:48:04.694Z,5.25
2023-09-02T19:49:36.737Z,5.07
2023-09-02T19:51:09.727Z,5.57
2023-09-02T19:52:41.825Z,6.38
2023-09-02T19:54:14.818Z,6.65
2023-09-02T19:55:49.807Z,6.82
2023-09-02T19:57:21.782Z,5.55
2023-09-02T19:59:03.185Z,7.25
2023-09-02T20:00:35.616Z,6.90
2023-09-02T20:02:08.634Z,5.47
2023-09-02T20:03:41.296Z,4.28
2023-09-02T20:05:14.290Z,5.68
2023-09-02T20:06:46.225Z,4.93
2023-09-02T20:08:19.378Z,4.68
2023-09-02T20:09:52.627Z,4.60
2023-09-02T20:11:25.627Z,3.65
2023-09-02T20:12:57.582Z,3.83
2023-09-02T20:14:32.430Z,3.78
2023-09-02T20:16:05.142Z,4.03
2023-09-02T20:17:38.176Z,4.25
2023-09-02T20:19:10.204Z,4.30
2023-09-02T20:20:43.840Z,4.07
2023-09-02T20:22:15.927Z,4.32
2023-09-02T20:23:48.903Z,4.32
2023-09-02T20:25:21.002Z,3.80
2023-09-02T20:26:54.382Z,3.75
2023-09-02T20:28:26.326Z,3.83
2023-09-02T20:30:00.781Z,4.10
2023-09-02T20:31:33.156Z,4.82
2023-09-02T20:33:06.668Z,4.53
2023-09-02T20:34:41.795Z,4.20
2023-09-02T20:36:15.400Z,4.00
2023-09-02T20:37:47.536Z,4.40
2023-09-02T20:39:21.145Z,4.45
2023-09-02T20:40:53.287Z,3.55
2023-09-02T20:42:26.214Z,3.63
2023-09-02T20:43:58.242Z,3.83
2023-09-02T20:45:38.476Z,3.58
2023-09-02T20:47:10.522Z,3.97
2023-09-02T20:48:43.839Z,4.15
2023-09-02T20:50:16.000Z,4.32
2023-09-02T20:51:49.039Z,4.40
2023-09-02T20:53:21.092Z,4.70
2023-09-02T20:54:55.398Z,5.10
2023-09-02T20:56:30.164Z,4.32
2023-09-02T20:58:05.207Z,5.10
2023-09-02T20:59:38.696Z,4.85
2023-09-02T21:01:13.228Z,4.70
2023-09-02T21:02:45.398Z,4.65
2023-09-02T21:04:18.548Z,4.83
2023-09-02T21:07:23.385Z,4.30
2023-09-02T21:08:55.395Z,5.22
2023-09-02T21:10:28.451Z,4.78
2023-09-02T21:12:00.435Z,4.97
2023-09-02T21:13:33.512Z,4.55
2023-09-02T21:15:06.771Z,4.40
2023-09-02T21:16:41.760Z,4.75
2023-09-02T21:18:13.906Z,4.72
2023-09-02T21:19:46.921Z,4.18
2023-09-02T21:21:20.731Z,4.35
2023-09-02T21:22:52.772Z,4.45
2023-09-02T21:24:25.873Z,4.68
2023-09-02T21:26:07.300Z,5.07
2023-09-02T21:27:40.250Z,5.28
2023-09-02T21:29:12.286Z,6.20
2023-09-02T21:30:45.201Z,4.63
2023-09-02T21:32:19.655Z,4.65
2023-09-02T21:33:54.841Z,5.22
2023-09-02T21:35:26.842Z,4.80
2023-09-02T21:36:59.789Z,5.50
2023-09-02T21:38:32.275Z,5.53
2023-09-02T21:40:06.063Z,5.63
2023-09-02T21:41:39.123Z,5.53
2023-09-02T21:43:11.162Z,5.68
2023-09-02T21:44:44.113Z,4.70
2023-09-02T21:46:16.232Z,4.63
2023-09-02T21:47:50.712Z,4.82
2023-09-02T21:49:23.693Z,4.60
2023-09-02T21:51:00.401Z,4.78
2023-09-02T21:52:33.545Z,5.10
2023-09-02T21:54:05.793Z,4.90
2023-09-02T21:55:38.783Z,4.60
2023-09-02T21:57:10.798Z,4.50
2023-09-02T21:58:43.743Z,4.47
2023-09-02T22:00:16.704Z,4.78
2023-09-02T22:01:49.731Z,4.28
2023-09-02T22:03:23.354Z,4.63
2023-09-02T22:04:56.697Z,4.80
2023-09-02T22:06:28.700Z,4.25
2023-09-02T22:08:04.448Z,4.55
2023-09-02T22:09:36.428Z,4.60
2023-09-02T22:11:09.619Z,4.72
2023-09-02T22:14:14.670Z,5.40
2023-09-02T22:15:46.657Z,4.90
2023-09-02T22:17:19.686Z,5.60
2023-09-02T22:19:04.386Z,5.63
2023-09-02T22:20:42.571Z,5.10
2023-09-02T22:22:14.529Z,5.20
2023-09-02T22:23:47.481Z,5.18
2023-09-02T22:25:19.564Z,4.90
2023-09-02T22:26:52.517Z,4.90
2023-09-02T22:28:24.448Z,5.10
2023-09-02T22:29:57.415Z,4.90
2023-09-02T22:31:29.552Z,5.07
2023-09-02T22:33:02.584Z,5.13